createdAt,value
2017-06-11T00:00:48.220Z,1012.59
2017-06-11T00:01:48.203Z,1012.57
2017-06-11T00:02:48.190Z,1012.56
2017-06-11T00:03:48.172Z,1012.58
2017-06-11T00:04:48.161Z,1012.55
2017-06-11T00:05:48.147Z,1012.55
2017-06-11T00:06:48.132Z,1012.55
2017-06-11T00:07:48.121Z,1012.56
2017-06-11T00:08:48.105Z,1012.51
2017-06-11T00:09:48.094Z,1012.5
2017-06-11T00:10:48.073Z,1012.49
2017-06-11T00:11:48.057Z,1012.48
2017-06-11T00:12:48.054Z,1012.48
2017-06-11T00:13:48.029Z,1012.44
2017-06-11T00:14:48.022Z,1012.46
2017-06-11T00:15:47.997Z,1012.45
2017-06-11T00:16:47.984Z,1012.44
2017-06-11T00:17:48.020Z,1012.44
2017-06-11T00:18:47.955Z,1012.42
2017-06-11T00:19:47.936Z,1012.43
2017-06-11T00:20:47.922Z,1012.41
2017-06-11T00:21:47.908Z,1012.39
2017-06-11T00:22:47.891Z,1012.35
2017-06-11T00:23:47.880Z,1012.37
2017-06-11T00:24:47.861Z,1012.38
2017-06-11T00:25:47.843Z,1012.38
2017-06-11T00:26:47.833Z,1012.38
2017-06-11T00:27:47.812Z,1012.37
2017-06-11T00:28:47.804Z,1012.37
2017-06-11T00:29:47.788Z,1012.39
2017-06-11T00:30:47.771Z,1012.37
2017-06-11T00:31:47.760Z,1012.37
2017-06-11T00:32:47.741Z,1012.34
2017-06-11T00:33:47.726Z,1012.33
2017-06-11T00:34:47.710Z,1012.33
2017-06-11T00:35:47.698Z,1012.3
2017-06-11T00:36:47.679Z,1012.31
2017-06-11T00:37:47.661Z,1012.36
2017-06-11T00:38:47.647Z,1012.32
2017-06-11T00:39:47.633Z,1012.33
2017-06-11T00:40:47.616Z,1012.3
2017-06-11T00:41:47.603Z,1012.34
2017-06-11T00:42:47.591Z,1012.34
2017-06-11T00:43:47.571Z,1012.31
2017-06-11T00:44:47.553Z,1012.34
2017-06-11T00:45:47.542Z,1012.29
2017-06-11T00:46:47.528Z,1012.27
2017-06-11T00:47:47.510Z,1012.24
2017-06-11T00:48:47.498Z,1012.26
2017-06-11T00:49:47.480Z,1012.23
2017-06-11T00:50:47.466Z,1012.28
2017-06-11T00:51:47.449Z,1012.23
2017-06-11T00:52:47.436Z,1012.27
2017-06-11T00:53:47.420Z,1012.25
2017-06-11T00:54:47.400Z,1012.27
2017-06-11T00:55:47.391Z,1012.26
2017-06-11T00:56:47.372Z,1012.25
2017-06-11T00:57:47.357Z,1012.25
2017-06-11T00:58:47.341Z,1012.22
2017-06-11T00:59:47.328Z,1012.24
2017-06-11T01:00:47.310Z,1012.25
2017-06-11T01:01:47.298Z,1012.31
2017-06-11T01:02:47.277Z,1012.27
2017-06-11T01:03:47.267Z,1012.27
2017-06-11T01:04:47.250Z,1012.3
2017-06-11T01:05:47.242Z,1012.31
2017-06-11T01:06:47.235Z,1012.34
2017-06-11T01:07:47.209Z,1012.33
2017-06-11T01:08:47.193Z,1012.33
2017-06-11T01:09:47.176Z,1012.32
2017-06-11T01:10:47.217Z,1012.35
2017-06-11T01:11:47.144Z,1012.32
2017-06-11T01:12:47.138Z,1012.32
2017-06-11T01:13:47.112Z,1012.34
2017-06-11T01:14:47.214Z,1012.32
2017-06-11T01:15:47.080Z,1012.33
2017-06-11T01:16:47.071Z,1012.32
2017-06-11T01:17:47.051Z,1012.31
2017-06-11T01:18:47.041Z,1012.3
2017-06-11T01:19:47.019Z,1012.33
2017-06-11T01:20:47.012Z,1012.26
2017-06-11T01:21:46.991Z,1012.23
2017-06-11T01:22:47.091Z,1012.21
2017-06-11T01:23:46.957Z,1012.22
2017-06-11T01:24:46.944Z,1012.21
2017-06-11T01:25:46.934Z,1012.24
2017-06-11T01:26:46.925Z,1012.21
2017-06-11T01:27:46.899Z,1012.26
2017-06-11T01:28:46.942Z,1012.23
2017-06-11T01:29:46.868Z,1012.27
2017-06-11T01:30:46.857Z,1012.3
2017-06-11T01:31:46.843Z,1012.27
2017-06-11T01:32:46.821Z,1012.24
2017-06-11T01:33:46.806Z,1012.25
2017-06-11T01:34:46.790Z,1012.25
2017-06-11T01:35:46.777Z,1012.26
2017-06-11T01:36:46.760Z,1012.24
2017-06-11T01:37:46.748Z,1012.25
2017-06-11T01:38:46.727Z,1012.23
2017-06-11T01:39:46.714Z,1012.25
2017-06-11T01:40:46.703Z,1012.23
2017-06-11T01:41:46.682Z,1012.19
2017-06-11T01:42:46.673Z,1012.2
2017-06-11T01:43:46.651Z,1012.22
2017-06-11T01:44:46.640Z,1012.18
2017-06-11T01:45:46.619Z,1012.19
2017-06-11T01:46:46.602Z,1012.19
2017-06-11T01:47:46.591Z,1012.19
2017-06-11T01:48:46.581Z,1012.18
2017-06-11T01:49:46.557Z,1012.17
2017-06-11T01:50:46.549Z,1012.15
2017-06-11T01:51:46.530Z,1012.18
2017-06-11T01:52:46.511Z,1012.18
2017-06-11T01:53:46.494Z,1012.17
2017-06-11T01:54:46.481Z,1012.19
2017-06-11T01:55:46.469Z,1012.21
2017-06-11T01:56:46.449Z,1012.23
2017-06-11T01:57:46.433Z,1012.21
2017-06-11T01:58:46.419Z,1012.2
2017-06-11T01:59:46.401Z,1012.18
2017-06-11T02:00:46.384Z,1012.2
2017-06-11T02:01:46.370Z,1012.15
2017-06-11T02:02:46.360Z,1012.16
2017-06-11T02:03:46.337Z,1012.12
2017-06-11T02:04:46.330Z,1012.15
2017-06-11T02:05:46.310Z,1012.12
2017-06-11T02:06:46.294Z,1012.15
2017-06-11T02:07:46.273Z,1012.1
2017-06-11T02:08:46.259Z,1012.1
2017-06-11T02:09:46.246Z,1012.1
2017-06-11T02:10:46.233Z,1012.07
2017-06-11T02:11:46.211Z,1012.06
2017-06-11T02:12:46.201Z,1012.05
2017-06-11T02:13:46.181Z,1012.05
2017-06-11T02:14:46.172Z,1012.04
2017-06-11T02:15:46.151Z,1012.04
2017-06-11T02:16:46.137Z,1012.02
2017-06-11T02:17:46.119Z,1012.03
2017-06-11T02:18:46.101Z,1012.03
2017-06-11T02:19:46.087Z,1012.03
2017-06-11T02:20:46.069Z,1012.04
2017-06-11T02:21:46.065Z,1012.07
2017-06-11T02:22:46.040Z,1012.04
2017-06-11T02:23:46.020Z,1012.02
2017-06-11T02:24:46.009Z,1012.06
2017-06-11T02:25:45.992Z,1012.03
2017-06-11T02:26:45.969Z,1011.99
2017-06-11T02:27:45.958Z,1011.97
2017-06-11T02:28:45.939Z,1011.99
2017-06-11T02:29:45.925Z,1012.03
2017-06-11T02:30:45.909Z,1012
2017-06-11T02:31:45.894Z,1012.02
2017-06-11T02:32:45.881Z,1012.03
2017-06-11T02:33:45.862Z,1012.01
2017-06-11T02:34:45.851Z,1012.04
2017-06-11T02:35:45.831Z,1012.04
2017-06-11T02:36:45.814Z,1012.01
2017-06-11T02:37:45.801Z,1012.01
2017-06-11T02:38:45.781Z,1012.01
2017-06-11T02:39:45.765Z,1012.06
2017-06-11T02:40:45.752Z,1012.06
2017-06-11T02:41:45.730Z,1012.06
2017-06-11T02:42:45.710Z,1012.03
2017-06-11T02:43:45.704Z,1012.07
2017-06-11T02:44:45.681Z,1012.04
2017-06-11T02:45:45.668Z,1012.05
2017-06-11T02:46:45.650Z,1012.05
2017-06-11T02:47:45.631Z,1012
2017-06-11T02:48:45.619Z,1012.02
2017-06-11T02:49:45.599Z,1012.02
2017-06-11T02:50:45.586Z,1012.01
2017-06-11T02:51:45.567Z,1012.01
2017-06-11T02:52:45.550Z,1012.02
2017-06-11T02:53:45.539Z,1012.01
2017-06-11T02:54:45.532Z,1012.01
2017-06-11T02:55:45.513Z,1012
2017-06-11T02:56:45.491Z,1012.03
2017-06-11T02:57:45.470Z,1012.04
2017-06-11T02:58:45.456Z,1011.99
2017-06-11T02:59:45.440Z,1012.03
2017-06-11T03:00:45.429Z,1012.02
2017-06-11T03:01:45.412Z,1012
2017-06-11T03:02:45.391Z,1011.98
2017-06-11T03:03:45.380Z,1012.01
2017-06-11T03:04:45.360Z,1011.99
2017-06-11T03:05:45.343Z,1011.94
2017-06-11T03:06:45.333Z,1011.95
2017-06-11T03:07:45.310Z,1011.92
2017-06-11T03:08:45.302Z,1011.97
2017-06-11T03:09:45.281Z,1011.95
2017-06-11T03:10:45.271Z,1011.97
2017-06-11T03:11:45.252Z,1011.92
2017-06-11T03:12:45.231Z,1011.96
2017-06-11T03:13:45.221Z,1011.95
2017-06-11T03:14:45.200Z,1011.95
2017-06-11T03:15:45.185Z,1011.92
2017-06-11T03:16:45.170Z,1011.94
2017-06-11T03:17:45.151Z,1011.96
2017-06-11T03:18:45.140Z,1011.93
2017-06-11T03:19:45.121Z,1011.93
2017-06-11T03:20:45.111Z,1011.89
2017-06-11T03:21:45.093Z,1011.9
2017-06-11T03:22:45.069Z,1011.9
2017-06-11T03:23:45.055Z,1011.91
2017-06-11T03:24:45.041Z,1011.9
2017-06-11T03:25:45.032Z,1011.87
2017-06-11T03:26:45.009Z,1011.86
2017-06-11T03:27:44.999Z,1011.87
2017-06-11T03:28:44.977Z,1011.86
2017-06-11T03:29:45.010Z,1011.87
2017-06-11T03:30:44.944Z,1011.87
2017-06-11T03:31:44.933Z,1011.86
2017-06-11T03:32:44.920Z,1011.85
2017-06-11T03:33:44.900Z,1011.82
2017-06-11T03:34:44.883Z,1011.82
2017-06-11T03:35:44.870Z,1011.8
2017-06-11T03:36:44.851Z,1011.8
2017-06-11T03:37:44.838Z,1011.8
2017-06-11T03:38:44.823Z,1011.81
2017-06-11T03:39:44.801Z,1011.8
2017-06-11T03:40:44.790Z,1011.78
2017-06-11T03:41:44.770Z,1011.8
2017-06-11T03:42:44.755Z,1011.76
2017-06-11T03:43:44.735Z,1011.78
2017-06-11T03:44:44.720Z,1011.76
2017-06-11T03:45:44.705Z,1011.77
2017-06-11T03:46:44.692Z,1011.78
2017-06-11T03:47:44.673Z,1011.76
2017-06-11T03:48:44.660Z,1011.76
2017-06-11T03:49:44.641Z,1011.75
2017-06-11T03:50:44.632Z,1011.74
2017-06-11T03:51:44.612Z,1011.74
2017-06-11T03:52:44.597Z,1011.8
2017-06-11T03:53:44.582Z,1011.81
2017-06-11T03:54:44.561Z,1011.83
2017-06-11T03:55:44.548Z,1011.83
2017-06-11T03:56:44.531Z,1011.8
2017-06-11T03:57:44.518Z,1011.82
2017-06-11T03:58:44.500Z,1011.82
2017-06-11T03:59:44.490Z,1011.81
2017-06-11T04:00:44.470Z,1011.81
2017-06-11T04:01:44.449Z,1011.86
2017-06-11T04:02:44.442Z,1011.83
2017-06-11T04:03:44.424Z,1011.82
2017-06-11T04:04:44.408Z,1011.84
2017-06-11T04:05:44.390Z,1011.83
2017-06-11T04:06:44.373Z,1011.84
2017-06-11T04:07:44.355Z,1011.9
2017-06-11T04:08:44.341Z,1011.9
2017-06-11T04:09:44.328Z,1011.92
2017-06-11T04:10:44.310Z,1011.95
2017-06-11T04:11:44.289Z,1011.91
2017-06-11T04:12:44.274Z,1011.95
2017-06-11T04:13:44.264Z,1011.94
2017-06-11T04:14:44.243Z,1011.91
2017-06-11T04:15:44.231Z,1011.9
2017-06-11T04:16:44.212Z,1011.92
2017-06-11T04:17:44.196Z,1011.86
2017-06-11T04:18:44.180Z,1011.87
2017-06-11T04:19:44.165Z,1011.9
2017-06-11T04:20:44.150Z,1011.88
2017-06-11T04:21:44.141Z,1011.85
2017-06-11T04:22:44.119Z,1011.87
2017-06-11T04:23:44.104Z,1011.88
2017-06-11T04:24:44.116Z,1011.89
2017-06-11T04:25:44.070Z,1011.83
2017-06-11T04:26:44.055Z,1011.86
2017-06-11T04:27:44.041Z,1011.9
2017-06-11T04:28:44.027Z,1011.9
2017-06-11T04:29:44.012Z,1011.91
2017-06-11T04:30:43.991Z,1011.91
2017-06-11T04:31:43.976Z,1011.91
2017-06-11T04:32:43.963Z,1011.93
2017-06-11T04:33:43.949Z,1011.92
2017-06-11T04:34:43.955Z,1011.95
2017-06-11T04:35:43.911Z,1011.93
2017-06-11T04:36:43.898Z,1011.92
2017-06-11T04:37:43.883Z,1011.93
2017-06-11T04:38:43.873Z,1011.96
2017-06-11T04:39:43.852Z,1011.94
2017-06-11T04:40:43.841Z,1011.95
2017-06-11T04:41:43.821Z,1012
2017-06-11T04:42:43.806Z,1011.96
2017-06-11T04:43:43.791Z,1011.97
2017-06-11T04:44:43.780Z,1011.97
2017-06-11T04:45:43.759Z,1011.93
2017-06-11T04:46:43.749Z,1011.93
2017-06-11T04:47:43.730Z,1011.96
2017-06-11T04:48:43.720Z,1011.92
2017-06-11T04:49:43.700Z,1011.89
2017-06-11T04:50:43.688Z,1011.96
2017-06-11T04:51:43.667Z,1011.93
2017-06-11T04:52:43.663Z,1011.93
2017-06-11T04:53:43.640Z,1011.92
2017-06-11T04:54:43.632Z,1011.89
2017-06-11T04:55:43.610Z,1011.89
2017-06-11T04:56:43.600Z,1011.86
2017-06-11T04:57:43.580Z,1011.88
2017-06-11T04:58:43.566Z,1011.88
2017-06-11T04:59:43.600Z,1011.9
2017-06-11T05:00:43.534Z,1011.83
2017-06-11T05:01:43.520Z,1011.83
2017-06-11T05:02:43.504Z,1011.85
2017-06-11T05:03:43.491Z,1011.87
2017-06-11T05:04:43.480Z,1011.88
2017-06-11T05:05:43.461Z,1011.87
2017-06-11T05:06:43.451Z,1011.87
2017-06-11T05:07:43.432Z,1011.86
2017-06-11T05:08:43.419Z,1011.85
2017-06-11T05:09:43.406Z,1011.85
2017-06-11T05:10:43.388Z,1011.81
2017-06-11T05:11:43.370Z,1011.81
2017-06-11T05:12:43.356Z,1011.82
2017-06-11T05:13:43.341Z,1011.79
2017-06-11T05:14:43.326Z,1011.8
2017-06-11T05:15:43.314Z,1011.83
2017-06-11T05:16:43.303Z,1011.78
2017-06-11T05:17:43.282Z,1011.74
2017-06-11T05:18:43.273Z,1011.78
2017-06-11T05:19:43.261Z,1011.79
2017-06-11T05:20:43.242Z,1011.8
2017-06-11T05:21:43.224Z,1011.8
2017-06-11T05:22:43.211Z,1011.83
2017-06-11T05:23:43.193Z,1011.84
2017-06-11T05:24:43.181Z,1011.79
2017-06-11T05:25:43.169Z,1011.79
2017-06-11T05:26:43.151Z,1011.75
2017-06-11T05:27:43.138Z,1011.78
2017-06-11T05:28:43.123Z,1011.76
2017-06-11T05:29:43.104Z,1011.77
2017-06-11T05:30:43.098Z,1011.7
2017-06-11T05:31:43.081Z,1011.67
2017-06-11T05:32:43.077Z,1011.68
2017-06-11T05:33:43.051Z,1011.71
2017-06-11T05:34:43.038Z,1011.73
2017-06-11T05:35:43.023Z,1011.73
2017-06-11T05:36:43.013Z,1011.71
2017-06-11T05:37:43.000Z,1011.71
2017-06-11T05:38:43.059Z,1011.71
2017-06-11T05:39:42.970Z,1011.7
2017-06-11T05:40:42.960Z,1011.71
2017-06-11T05:41:42.938Z,1011.71
2017-06-11T05:42:42.922Z,1011.71
2017-06-11T05:43:42.912Z,1011.7
2017-06-11T05:44:42.895Z,1011.71
2017-06-11T05:45:42.880Z,1011.71
2017-06-11T05:46:42.877Z,1011.7
2017-06-11T05:47:42.856Z,1011.7
2017-06-11T05:48:42.839Z,1011.71
2017-06-11T05:49:42.832Z,1011.69
2017-06-11T05:50:42.811Z,1011.72
2017-06-11T05:51:42.800Z,1011.77
2017-06-11T05:52:42.785Z,1011.77
2017-06-11T05:53:42.768Z,1011.79
2017-06-11T05:54:42.762Z,1011.84
2017-06-11T05:55:42.746Z,1011.86
2017-06-11T05:56:42.730Z,1011.88
2017-06-11T05:57:42.714Z,1011.87
2017-06-11T05:58:42.701Z,1011.85
2017-06-11T05:59:42.692Z,1011.84
2017-06-11T06:00:42.676Z,1011.85
2017-06-11T06:01:42.662Z,1011.83
2017-06-11T06:02:42.650Z,1011.85
2017-06-11T06:03:42.636Z,1011.87
2017-06-11T06:04:42.625Z,1011.89
2017-06-11T06:05:42.609Z,1011.88
2017-06-11T06:06:42.591Z,1011.91
2017-06-11T06:07:42.580Z,1011.88
2017-06-11T06:08:42.564Z,1011.84
2017-06-11T06:09:42.603Z,1011.83
2017-06-11T06:10:42.540Z,1011.82
2017-06-11T06:11:42.525Z,1011.84
2017-06-11T06:12:42.510Z,1011.85
2017-06-11T06:13:42.500Z,1011.87
2017-06-11T06:14:42.489Z,1011.89
2017-06-11T06:15:42.472Z,1011.9
2017-06-11T06:16:42.463Z,1011.91
2017-06-11T06:17:42.447Z,1011.92
2017-06-11T06:18:42.433Z,1011.9
2017-06-11T06:19:42.420Z,1011.92
2017-06-11T06:20:42.399Z,1011.91
2017-06-11T06:21:42.391Z,1011.95
2017-06-11T06:22:42.377Z,1011.93
2017-06-11T06:23:42.363Z,1011.95
2017-06-11T06:24:42.351Z,1011.95
2017-06-11T06:25:42.338Z,1011.92
2017-06-11T06:26:42.321Z,1011.95
2017-06-11T06:27:42.310Z,1011.93
2017-06-11T06:28:42.297Z,1011.94
2017-06-11T06:29:42.284Z,1011.91
2017-06-11T06:30:42.269Z,1011.88
2017-06-11T06:31:42.251Z,1011.85
2017-06-11T06:32:42.237Z,1011.87
2017-06-11T06:33:42.226Z,1011.84
2017-06-11T06:34:42.211Z,1011.85
2017-06-11T06:35:42.198Z,1011.84
2017-06-11T06:36:42.192Z,1011.81
2017-06-11T06:37:42.168Z,1011.76
2017-06-11T06:38:42.164Z,1011.76
2017-06-11T06:39:42.139Z,1011.79
2017-06-11T06:40:42.126Z,1011.75
2017-06-11T06:41:42.119Z,1011.8
2017-06-11T06:42:42.103Z,1011.76
2017-06-11T06:43:42.084Z,1011.74
2017-06-11T06:44:42.121Z,1011.78
2017-06-11T06:45:42.062Z,1011.73
2017-06-11T06:46:42.049Z,1011.76
2017-06-11T06:47:42.030Z,1011.7
2017-06-11T06:48:42.017Z,1011.68
2017-06-11T06:49:42.003Z,1011.69
2017-06-11T06:50:41.991Z,1011.72
2017-06-11T06:51:41.981Z,1011.67
2017-06-11T06:52:41.965Z,1011.7
2017-06-11T06:53:41.949Z,1011.72
2017-06-11T06:54:41.937Z,1011.7
2017-06-11T06:55:41.921Z,1011.73
2017-06-11T06:56:41.911Z,1011.76
2017-06-11T06:57:41.893Z,1011.74
2017-06-11T06:58:41.880Z,1011.7
2017-06-11T06:59:41.866Z,1011.69
2017-06-11T07:00:41.851Z,1011.73
2017-06-11T07:01:41.841Z,1011.7
2017-06-11T07:02:41.832Z,1011.74
2017-06-11T07:03:41.912Z,1011.72
2017-06-11T07:04:41.804Z,1011.71
2017-06-11T07:05:41.785Z,1011.72
2017-06-11T07:06:41.773Z,1011.69
2017-06-11T07:07:41.765Z,1011.72
2017-06-11T07:08:41.753Z,1011.7
2017-06-11T07:09:41.747Z,1011.69
2017-06-11T07:10:41.720Z,1011.69
2017-06-11T07:11:41.712Z,1011.69
2017-06-11T07:12:41.694Z,1011.71
2017-06-11T07:13:41.732Z,1011.71
2017-06-11T07:14:41.671Z,1011.71
2017-06-11T07:15:41.752Z,1011.74
2017-06-11T07:16:41.644Z,1011.73
2017-06-11T07:17:41.634Z,1011.74
2017-06-11T07:18:41.619Z,1011.78
2017-06-11T07:19:41.703Z,1011.74
2017-06-11T07:20:41.589Z,1011.68
2017-06-11T07:21:41.582Z,1011.74
2017-06-11T07:22:41.566Z,1011.69
2017-06-11T07:23:41.553Z,1011.7
2017-06-11T07:24:41.542Z,1011.7
2017-06-11T07:25:41.531Z,1011.67
2017-06-11T07:26:41.524Z,1011.65
2017-06-11T07:27:41.502Z,1011.66
2017-06-11T07:28:41.492Z,1011.68
2017-06-11T07:29:41.481Z,1011.63
2017-06-11T07:30:41.470Z,1011.64
2017-06-11T07:31:41.455Z,1011.6
2017-06-11T07:32:41.443Z,1011.62
2017-06-11T07:33:41.438Z,1011.62
2017-06-11T07:34:41.425Z,1011.62
2017-06-11T07:35:41.406Z,1011.57
2017-06-11T07:36:41.392Z,1011.6
2017-06-11T07:37:41.382Z,1011.58
2017-06-11T07:38:41.378Z,1011.62
2017-06-11T07:39:41.362Z,1011.59
2017-06-11T07:40:41.343Z,1011.59
2017-06-11T07:41:41.331Z,1011.59
2017-06-11T07:42:41.325Z,1011.6
2017-06-11T07:43:41.312Z,1011.58
2017-06-11T07:44:41.297Z,1011.52
2017-06-11T07:45:41.287Z,1011.49
2017-06-11T07:46:41.272Z,1011.49
2017-06-11T07:47:41.265Z,1011.53
2017-06-11T07:48:41.250Z,1011.54
2017-06-11T07:49:41.243Z,1011.59
2017-06-11T07:50:41.225Z,1011.55
2017-06-11T07:51:41.222Z,1011.53
2017-06-11T07:52:41.202Z,1011.54
2017-06-11T07:53:41.201Z,1011.54
2017-06-11T07:54:41.185Z,1011.54
2017-06-11T07:55:41.172Z,1011.49
2017-06-11T07:56:41.158Z,1011.5
2017-06-11T07:57:41.152Z,1011.5
2017-06-11T07:58:41.133Z,1011.48
2017-06-11T07:59:41.125Z,1011.51
2017-06-11T08:00:41.112Z,1011.55
2017-06-11T08:01:41.102Z,1011.52
2017-06-11T08:02:41.090Z,1011.53
2017-06-11T08:03:41.076Z,1011.52
2017-06-11T08:04:41.074Z,1011.5
2017-06-11T08:05:41.057Z,1011.5
2017-06-11T08:06:41.044Z,1011.44
2017-06-11T08:07:41.034Z,1011.46
2017-06-11T08:08:41.032Z,1011.38
2017-06-11T08:09:41.011Z,1011.37
2017-06-11T08:10:41.036Z,1011.27
2017-06-11T08:11:40.986Z,1011.28
2017-06-11T08:12:40.978Z,1011.32
2017-06-11T08:13:40.961Z,1011.31
2017-06-11T08:14:40.952Z,1011.32
2017-06-11T08:15:40.942Z,1011.3
2017-06-11T08:16:40.931Z,1011.25
2017-06-11T08:17:40.918Z,1011.27
2017-06-11T08:18:40.910Z,1011.28
2017-06-11T08:19:40.899Z,1011.27
2017-06-11T08:20:40.893Z,1011.25
2017-06-11T08:21:40.877Z,1011.22
2017-06-11T08:22:40.863Z,1011.2
2017-06-11T08:23:40.862Z,1011.18
2017-06-11T08:24:40.844Z,1011.19
2017-06-11T08:25:40.831Z,1011.23
2017-06-11T08:26:40.821Z,1011.12
2017-06-11T08:27:40.813Z,1011.2
2017-06-11T08:28:40.802Z,1011.19
2017-06-11T08:29:40.787Z,1011.17
2017-06-11T08:30:40.779Z,1011.16
2017-06-11T08:31:40.765Z,1011.18
2017-06-11T08:32:40.752Z,1011.14
2017-06-11T08:33:40.742Z,1011.1
2017-06-11T08:34:40.732Z,1011.09
2017-06-11T08:35:40.718Z,1011.11
2017-06-11T08:36:40.714Z,1011.09
2017-06-11T08:37:40.698Z,1011.12
2017-06-11T08:38:40.687Z,1011.09
2017-06-11T08:39:40.679Z,1011.06
2017-06-11T08:40:40.673Z,1011.14
2017-06-11T08:41:40.658Z,1011.07
2017-06-11T08:42:40.652Z,1011.06
2017-06-11T08:43:40.639Z,1011.11
2017-06-11T08:44:40.629Z,1011.09
2017-06-11T08:45:40.619Z,1011.03
2017-06-11T08:46:40.606Z,1011.05
2017-06-11T08:47:40.594Z,1011.09
2017-06-11T08:48:40.589Z,1011.05
2017-06-11T08:49:40.573Z,1011.08
2017-06-11T08:50:40.562Z,1011.07
2017-06-11T08:51:40.559Z,1011.09
2017-06-11T08:52:40.544Z,1011.1
2017-06-11T08:53:40.531Z,1011.09
2017-06-11T08:54:40.522Z,1011.09
2017-06-11T08:55:40.511Z,1011.09
2017-06-11T08:56:40.502Z,1011.11
2017-06-11T08:57:40.497Z,1011.06
2017-06-11T08:58:40.489Z,1011.06
2017-06-11T08:59:40.479Z,1011.08
2017-06-11T09:00:40.468Z,1011.04
2017-06-11T09:01:40.461Z,1011.04
2017-06-11T09:02:40.449Z,1011.06
2017-06-11T09:03:40.434Z,1011.04
2017-06-11T09:04:40.430Z,1011.07
2017-06-11T09:05:40.416Z,1011.07
2017-06-11T09:06:40.407Z,1011.07
2017-06-11T09:07:40.399Z,1011.08
2017-06-11T09:08:40.384Z,1011.02
2017-06-11T09:09:40.391Z,1011.03
2017-06-11T09:10:40.365Z,1011.02
2017-06-11T09:11:40.358Z,1011.01
2017-06-11T09:12:40.350Z,1010.99
2017-06-11T09:13:40.341Z,1011.01
2017-06-11T09:14:40.329Z,1010.99
2017-06-11T09:15:40.317Z,1010.99
2017-06-11T09:16:40.313Z,1010.98
2017-06-11T09:17:40.312Z,1010.99
2017-06-11T09:18:40.302Z,1010.98
2017-06-11T09:19:40.278Z,1010.99
2017-06-11T09:20:40.269Z,1010.96
2017-06-11T09:21:40.259Z,1010.91
2017-06-11T09:22:40.260Z,1010.93
2017-06-11T09:23:40.254Z,1010.9
2017-06-11T09:24:40.240Z,1010.91
2017-06-11T09:25:40.224Z,1010.87
2017-06-11T09:26:40.219Z,1010.88
2017-06-11T09:27:40.207Z,1010.89
2017-06-11T09:28:40.195Z,1010.9
2017-06-11T09:29:40.189Z,1010.84
2017-06-11T09:30:40.180Z,1010.86
2017-06-11T09:31:40.170Z,1010.82
2017-06-11T09:32:40.163Z,1010.78
2017-06-11T09:33:40.161Z,1010.77
2017-06-11T09:34:40.139Z,1010.76
2017-06-11T09:35:40.132Z,1010.75
2017-06-11T09:36:40.130Z,1010.76
2017-06-11T09:37:40.117Z,1010.74
2017-06-11T09:38:40.111Z,1010.78
2017-06-11T09:39:40.100Z,1010.77
2017-06-11T09:40:40.090Z,1010.71
2017-06-11T09:41:40.080Z,1010.68
2017-06-11T09:42:40.074Z,1010.67
2017-06-11T09:43:40.059Z,1010.66
2017-06-11T09:44:40.049Z,1010.6
2017-06-11T09:45:40.042Z,1010.68
2017-06-11T09:46:40.036Z,1010.61
2017-06-11T09:47:40.030Z,1010.63
2017-06-11T09:48:40.028Z,1010.58
2017-06-11T09:49:40.008Z,1010.62
2017-06-11T09:50:40.001Z,1010.59
2017-06-11T09:51:39.989Z,1010.59
2017-06-11T09:52:39.986Z,1010.53
2017-06-11T09:53:39.972Z,1010.49
2017-06-11T09:54:39.968Z,1010.49
2017-06-11T09:55:39.954Z,1010.53
2017-06-11T09:56:39.945Z,1010.47
2017-06-11T09:57:39.936Z,1010.49
2017-06-11T09:58:39.932Z,1010.46
2017-06-11T09:59:39.919Z,1010.46
2017-06-11T10:00:40.010Z,1010.45
2017-06-11T10:01:39.915Z,1010.43
2017-06-11T10:02:39.899Z,1010.47
2017-06-11T10:03:39.883Z,1010.47
2017-06-11T10:04:39.878Z,1010.44
2017-06-11T10:05:39.870Z,1010.43
2017-06-11T10:06:39.861Z,1010.49
2017-06-11T10:07:39.848Z,1010.45
2017-06-11T10:08:39.849Z,1010.44
2017-06-11T10:09:39.838Z,1010.43
2017-06-11T10:10:39.826Z,1010.44
2017-06-11T10:11:39.819Z,1010.44
2017-06-11T10:12:39.819Z,1010.47
2017-06-11T10:13:39.806Z,1010.48
2017-06-11T10:14:39.790Z,1010.46
2017-06-11T10:15:39.781Z,1010.38
2017-06-11T10:16:39.769Z,1010.36
2017-06-11T10:17:39.779Z,1010.36
2017-06-11T10:18:39.759Z,1010.35
2017-06-11T10:19:39.749Z,1010.36
2017-06-11T10:20:39.738Z,1010.34
2017-06-11T10:21:39.736Z,1010.34
2017-06-11T10:22:39.723Z,1010.29
2017-06-11T10:23:39.713Z,1010.24
2017-06-11T10:24:39.710Z,1010.24
2017-06-11T10:25:39.699Z,1010.24
2017-06-11T10:26:39.689Z,1010.22
2017-06-11T10:27:39.905Z,1010.2
2017-06-11T10:28:39.679Z,1010.23
2017-06-11T10:29:39.667Z,1010.25
2017-06-11T10:30:39.659Z,1010.22
2017-06-11T10:31:39.649Z,1010.25
2017-06-11T10:32:39.650Z,1010.23
2017-06-11T10:33:39.636Z,1010.23
2017-06-11T10:34:39.627Z,1010.22
2017-06-11T10:35:39.617Z,1010.2
2017-06-11T10:36:39.621Z,1010.23
2017-06-11T10:37:39.619Z,1010.15
2017-06-11T10:38:39.596Z,1010.17
2017-06-11T10:39:39.588Z,1010.16
2017-06-11T10:40:39.574Z,1010.13
2017-06-11T10:41:39.571Z,1010.16
2017-06-11T10:42:39.557Z,1010.11
2017-06-11T10:43:39.596Z,1010.11
2017-06-11T10:44:39.545Z,1010.11
2017-06-11T10:45:39.588Z,1010.14
2017-06-11T10:46:39.525Z,1010.11
2017-06-11T10:47:39.528Z,1010.11
2017-06-11T10:48:39.513Z,1010.08
2017-06-11T10:49:39.558Z,1010.03
2017-06-11T10:50:39.498Z,1010.08
2017-06-11T10:51:39.488Z,1010.06
2017-06-11T10:52:39.482Z,1010.05
2017-06-11T10:53:39.478Z,1010.01
2017-06-11T10:54:39.471Z,1010.03
2017-06-11T10:55:39.457Z,1009.91
2017-06-11T10:56:39.451Z,1009.94
2017-06-11T10:57:39.444Z,1009.94
2017-06-11T10:58:39.436Z,1009.93
2017-06-11T10:59:39.427Z,1009.89
2017-06-11T11:00:39.417Z,1009.84
2017-06-11T11:01:39.413Z,1009.87
2017-06-11T11:02:39.405Z,1009.9
2017-06-11T11:03:39.397Z,1009.85
2017-06-11T11:04:39.388Z,1009.77
2017-06-11T11:05:39.387Z,1009.74
2017-06-11T11:06:39.374Z,1009.72
2017-06-11T11:07:39.368Z,1009.69
2017-06-11T11:08:39.359Z,1009.67
2017-06-11T11:09:39.355Z,1009.64
2017-06-11T11:10:39.348Z,1009.66
2017-06-11T11:11:39.338Z,1009.61
2017-06-11T11:12:39.327Z,1009.64
2017-06-11T11:13:39.320Z,1009.62
2017-06-11T11:14:39.318Z,1009.64
2017-06-11T11:15:39.310Z,1009.59
2017-06-11T11:16:39.319Z,1009.58
2017-06-11T11:17:39.287Z,1009.55
2017-06-11T11:18:39.287Z,1009.58
2017-06-11T11:19:39.277Z,1009.6
2017-06-11T11:20:39.276Z,1009.6
2017-06-11T11:21:39.260Z,1009.59
2017-06-11T11:22:39.250Z,1009.53
2017-06-11T11:23:39.247Z,1009.49
2017-06-11T11:24:39.274Z,1009.55
2017-06-11T11:25:39.227Z,1009.48
2017-06-11T11:26:39.277Z,1009.56
2017-06-11T11:27:39.214Z,1009.48
2017-06-11T11:28:39.205Z,1009.43
2017-06-11T11:29:39.198Z,1009.39
2017-06-11T11:30:39.187Z,1009.44
2017-06-11T11:31:39.191Z,1009.43
2017-06-11T11:32:39.176Z,1009.38
2017-06-11T11:33:39.170Z,1009.36
2017-06-11T11:34:39.159Z,1009.32
2017-06-11T11:35:39.160Z,1009.26
2017-06-11T11:36:39.143Z,1009.28
2017-06-11T11:37:39.137Z,1009.3
2017-06-11T11:38:39.128Z,1009.26
2017-06-11T11:39:39.124Z,1009.22
2017-06-11T11:40:39.112Z,1009.24
2017-06-11T11:41:39.108Z,1009.27
2017-06-11T11:42:39.156Z,1009.21
2017-06-11T11:43:39.087Z,1009.25
2017-06-11T11:44:39.080Z,1009.26
2017-06-11T11:45:39.077Z,1009.2
2017-06-11T11:46:39.068Z,1009.21
2017-06-11T11:47:39.058Z,1009.17
2017-06-11T11:48:39.048Z,1009.18
2017-06-11T11:49:39.051Z,1009.19
2017-06-11T11:50:39.037Z,1009.18
2017-06-11T11:51:39.031Z,1009.19
2017-06-11T11:52:39.018Z,1009.14
2017-06-11T11:53:39.012Z,1009.14
2017-06-11T11:54:39.007Z,1009.09
2017-06-11T11:55:39.047Z,1009.09
2017-06-11T11:56:38.991Z,1009.09
2017-06-11T11:57:38.984Z,1009.06
2017-06-11T11:58:38.986Z,1009.08
2017-06-11T11:59:38.967Z,1009.08
2017-06-11T12:00:38.956Z,1009.01
2017-06-11T12:01:38.957Z,1009.02
2017-06-11T12:02:38.943Z,1009.01
2017-06-11T12:03:38.935Z,1009
2017-06-11T12:04:38.927Z,1009
2017-06-11T12:05:38.924Z,1008.99
2017-06-11T12:06:38.917Z,1008.98
2017-06-11T12:07:38.907Z,1008.97
2017-06-11T12:08:38.896Z,1008.95